Taylor, Canada
Current Conditions -  °F | °C
As of 5:00 AM on Saturday 25 Oct 2014 (Local Time) from CYXJ Reporting Station
Clear Clear  
Wind Chill: 21°   Ceiling: Unl
Heat Index: 27°   Visibility: 15mi
Dew Point: 23°   Wind: 5mph
Humidity: 86%   Direction: 140°SE
Pressure: 29.92"   Gusts: NA
Location:  56.15°N, 120.67°W
Report Text: CYXJ 251100Z 14004KT 15SM SKC M03/M05 A2992 RMK SLP162
Loading
Personal Weather Stations






























Interactive Weather Map
Tropical Storm Tracking
New forecast layout! Learn more

10-Day Weather Forecast

Advertisements
Track Severe Weather on mobile